createdAt,value
2018-03-22T00:00:47.501Z,1.27
2018-03-22T00:03:15.184Z,1.32
2018-03-22T00:05:42.869Z,1.30
2018-03-22T00:08:10.537Z,1.27
2018-03-22T00:10:38.424Z,1.11
2018-03-22T00:13:06.092Z,1.15
2018-03-22T00:15:33.761Z,1.13
2018-03-22T00:18:01.457Z,1.17
2018-03-22T00:20:29.183Z,1.12
2018-03-22T00:23:01.335Z,1.10
2018-03-22T00:25:29.202Z,0.91
2018-03-22T00:27:56.942Z,1.05
2018-03-22T00:30:24.637Z,1.04
2018-03-22T00:32:52.305Z,1.03
2018-03-22T00:35:19.991Z,1.07
2018-03-22T00:37:47.664Z,1.08
2018-03-22T00:40:15.349Z,1.10
2018-03-22T00:42:43.008Z,0.94
2018-03-22T00:45:10.731Z,0.95
2018-03-22T00:47:38.476Z,0.92
2018-03-22T00:50:06.139Z,0.86
2018-03-22T00:52:33.823Z,0.82
2018-03-22T00:55:01.488Z,0.77
2018-03-22T00:57:29.231Z,0.79
2018-03-22T00:59:56.891Z,0.77
2018-03-22T01:02:24.852Z,0.63
2018-03-22T01:04:52.515Z,0.62
2018-03-22T01:07:20.173Z,0.63
2018-03-22T01:09:47.857Z,0.71
2018-03-22T01:12:15.531Z,0.65
2018-03-22T01:14:43.212Z,0.71
2018-03-22T01:17:10.877Z,0.73
2018-03-22T01:19:38.601Z,0.55
2018-03-22T01:22:06.260Z,0.66
2018-03-22T01:24:33.921Z,0.61
2018-03-22T01:27:01.597Z,0.40
2018-03-22T01:29:29.244Z,0.44
2018-03-22T01:31:56.948Z,0.50
2018-03-22T01:34:24.613Z,0.48
2018-03-22T01:36:52.297Z,0.66
2018-03-22T01:39:20.005Z,0.59
2018-03-22T01:41:47.683Z,0.54
2018-03-22T01:44:15.349Z,0.53
2018-03-22T01:46:43.028Z,0.49
2018-03-22T01:49:10.692Z,0.39
2018-03-22T01:51:38.384Z,0.38
2018-03-22T01:54:06.038Z,0.37
2018-03-22T01:56:33.692Z,0.39
2018-03-22T01:59:01.376Z,0.35
2018-03-22T02:01:29.036Z,0.19
2018-03-22T02:03:56.718Z,0.13
2018-03-22T02:06:24.389Z,0.17
2018-03-22T02:08:52.259Z,0.19
2018-03-22T02:11:19.915Z,0.16
2018-03-22T02:13:47.583Z,0.16
2018-03-22T02:16:15.271Z,0.10
2018-03-22T02:18:43.541Z,0.01
2018-03-22T02:21:11.215Z,0.02
2018-03-22T02:23:38.875Z,-0.02
2018-03-22T02:26:06.582Z,-0.13
2018-03-22T02:28:34.246Z,-0.08
2018-03-22T02:31:01.919Z,-0.03
2018-03-22T02:33:29.619Z,-0.17
2018-03-22T02:35:57.361Z,-0.13
2018-03-22T02:38:25.064Z,-0.09
2018-03-22T02:40:52.737Z,-0.22
2018-03-22T02:43:20.466Z,-0.29
2018-03-22T02:45:48.130Z,-0.22
2018-03-22T02:48:15.797Z,-0.34
2018-03-22T02:50:43.490Z,-0.23
2018-03-22T02:53:11.151Z,-0.22
2018-03-22T02:55:38.853Z,-0.19
2018-03-22T02:58:06.522Z,-0.19
2018-03-22T03:00:35.406Z,-0.19
2018-03-22T03:03:03.068Z,-0.29
2018-03-22T03:05:30.739Z,-0.21
2018-03-22T03:07:58.429Z,-0.12
2018-03-22T03:10:26.167Z,-0.06
2018-03-22T03:12:53.844Z,-0.17
2018-03-22T03:15:21.507Z,-0.19
2018-03-22T03:17:49.216Z,-0.19
2018-03-22T03:20:16.880Z,-0.17
2018-03-22T03:22:44.554Z,-0.35
2018-03-22T03:25:12.248Z,-0.29
2018-03-22T03:27:39.915Z,-0.19
2018-03-22T03:30:07.599Z,-0.16
2018-03-22T03:32:35.279Z,-0.12
2018-03-22T03:35:03.305Z,-0.07
2018-03-22T03:37:30.974Z,-0.17
2018-03-22T03:39:58.637Z,-0.13
2018-03-22T03:42:26.324Z,-0.19
2018-03-22T03:44:54.108Z,-0.14
2018-03-22T03:47:21.807Z,-0.32
2018-03-22T03:49:49.480Z,-0.30
2018-03-22T03:52:17.170Z,-0.29
2018-03-22T03:54:44.847Z,-0.42
2018-03-22T03:57:12.579Z,-0.39
2018-03-22T03:59:40.260Z,-0.21
2018-03-22T04:02:07.922Z,-0.24
2018-03-22T04:04:35.600Z,-0.19
2018-03-22T04:07:03.256Z,-0.31
2018-03-22T04:09:30.919Z,-0.27
2018-03-22T04:11:58.608Z,-0.19
2018-03-22T04:14:26.277Z,-0.22
2018-03-22T04:16:53.995Z,-0.19
2018-03-22T04:19:21.661Z,-0.28
2018-03-22T04:21:49.331Z,-0.18
2018-03-22T04:24:17.020Z,-0.17
2018-03-22T04:26:44.682Z,-0.13
2018-03-22T04:29:12.384Z,-0.15
2018-03-22T04:31:40.052Z,-0.14
2018-03-22T04:34:07.720Z,-0.19
2018-03-22T04:36:35.475Z,-0.25
2018-03-22T04:39:03.145Z,-0.22
2018-03-22T04:41:30.872Z,-0.12
2018-03-22T04:43:58.558Z,-0.09
2018-03-22T04:46:26.330Z,-0.03
2018-03-22T04:48:53.987Z,0.05
2018-03-22T04:51:21.656Z,0.11
2018-03-22T04:53:49.345Z,0.11
2018-03-22T04:56:17.015Z,0.13
2018-03-22T04:58:44.707Z,0.09
2018-03-22T05:01:12.517Z,0.20
2018-03-22T05:03:40.513Z,0.19
2018-03-22T05:06:08.174Z,0.25
2018-03-22T05:08:35.832Z,0.28
2018-03-22T05:11:04.065Z,0.16
2018-03-22T05:13:31.740Z,0.14
2018-03-22T05:15:59.444Z,0.14
2018-03-22T05:18:27.101Z,0.13
2018-03-22T05:20:55.090Z,0.18
2018-03-22T05:23:22.752Z,0.28
2018-03-22T05:25:50.404Z,0.19
2018-03-22T05:28:18.080Z,0.09
2018-03-22T05:30:45.783Z,0.16
2018-03-22T05:33:13.469Z,0.34
2018-03-22T05:35:41.825Z,0.38
2018-03-22T05:38:09.688Z,0.47
2018-03-22T05:40:37.352Z,0.55
2018-03-22T05:43:05.013Z,0.48
2018-03-22T05:45:32.709Z,0.43
2018-03-22T05:48:00.380Z,-0.05
2018-03-22T05:50:28.070Z,0.00
2018-03-22T05:52:55.772Z,-0.02
2018-03-22T05:55:23.629Z,0.02
2018-03-22T05:57:51.298Z,0.02
2018-03-22T06:00:18.953Z,0.04
2018-03-22T06:02:46.648Z,0.05
2018-03-22T06:05:14.322Z,0.06
2018-03-22T06:07:42.027Z,0.04
2018-03-22T06:10:09.697Z,0.07
2018-03-22T06:12:37.675Z,0.16
2018-03-22T06:15:06.874Z,0.21
2018-03-22T06:17:34.542Z,0.21
2018-03-22T06:20:02.229Z,0.31
2018-03-22T06:22:29.912Z,0.38
2018-03-22T06:24:57.607Z,0.50
2018-03-22T06:27:25.340Z,0.46
2018-03-22T06:29:53.040Z,0.58
2018-03-22T06:32:20.696Z,0.65
2018-03-22T06:34:48.383Z,0.71
2018-03-22T06:37:16.082Z,0.76
2018-03-22T06:39:43.743Z,0.72
2018-03-22T06:42:11.423Z,0.73
2018-03-22T06:44:39.094Z,0.78
2018-03-22T06:47:07.166Z,0.91
2018-03-22T06:49:34.879Z,1.00
2018-03-22T06:52:02.632Z,1.06
2018-03-22T06:54:30.504Z,1.08
2018-03-22T06:56:58.199Z,1.01
2018-03-22T06:59:25.882Z,0.99
2018-03-22T07:01:53.559Z,1.24
2018-03-22T07:04:21.307Z,1.48
2018-03-22T07:06:48.975Z,1.54
2018-03-22T07:09:16.650Z,1.51
2018-03-22T07:11:44.356Z,1.64
2018-03-22T07:14:12.023Z,1.68
2018-03-22T07:16:39.768Z,1.53
2018-03-22T07:19:07.426Z,1.83
2018-03-22T07:21:35.280Z,1.70
2018-03-22T07:24:02.937Z,1.83
2018-03-22T07:26:30.593Z,1.81
2018-03-22T07:28:58.273Z,1.99
2018-03-22T07:31:25.952Z,2.09
2018-03-22T07:33:53.685Z,2.14
2018-03-22T07:36:21.335Z,2.00
2018-03-22T07:38:49.242Z,2.03
2018-03-22T07:41:16.914Z,2.13
2018-03-22T07:43:44.579Z,2.25
2018-03-22T07:46:12.273Z,2.30
2018-03-22T07:48:39.941Z,2.32
2018-03-22T07:51:08.231Z,2.41
2018-03-22T07:53:35.894Z,2.57
2018-03-22T07:56:03.647Z,2.74
2018-03-22T07:58:31.300Z,2.66
2018-03-22T08:00:58.980Z,2.72
2018-03-22T08:03:26.667Z,2.73
2018-03-22T08:05:54.378Z,2.87
2018-03-22T08:08:22.112Z,2.82
2018-03-22T08:10:49.786Z,2.95
2018-03-22T08:13:17.508Z,2.96
2018-03-22T08:15:45.184Z,2.77
2018-03-22T08:18:12.919Z,3.08
2018-03-22T08:20:40.606Z,3.11
2018-03-22T08:23:08.275Z,3.07
2018-03-22T08:25:35.960Z,3.11
2018-03-22T08:28:03.625Z,3.06
2018-03-22T08:30:31.302Z,3.03
2018-03-22T08:32:58.998Z,3.30
2018-03-22T08:35:26.806Z,3.29
2018-03-22T08:37:54.555Z,3.24
2018-03-22T08:40:22.237Z,3.29
2018-03-22T08:42:49.903Z,3.44
2018-03-22T08:45:17.596Z,3.51
2018-03-22T08:47:45.265Z,3.41
2018-03-22T08:50:12.953Z,3.65
2018-03-22T08:52:40.617Z,3.78
2018-03-22T08:55:08.280Z,3.79
2018-03-22T08:57:35.963Z,3.72
2018-03-22T09:00:03.649Z,3.80
2018-03-22T09:02:31.327Z,4.04
2018-03-22T09:04:58.991Z,4.17
2018-03-22T09:07:26.652Z,4.07
2018-03-22T09:09:54.487Z,4.30
2018-03-22T09:12:22.162Z,4.59
2018-03-22T09:14:49.848Z,4.66
2018-03-22T09:17:17.513Z,4.54
2018-03-22T09:19:45.188Z,4.15
2018-03-22T09:22:12.871Z,4.44
2018-03-22T09:24:40.620Z,4.05
2018-03-22T09:27:08.329Z,4.44
2018-03-22T09:29:36.398Z,4.84
2018-03-22T09:32:04.185Z,4.53
2018-03-22T09:34:32.877Z,4.52
2018-03-22T09:37:00.544Z,4.43
2018-03-22T09:39:28.468Z,4.28
2018-03-22T09:41:56.129Z,4.53
2018-03-22T09:44:23.789Z,4.42
2018-03-22T09:46:51.735Z,4.39
2018-03-22T09:49:19.399Z,4.30
2018-03-22T09:51:47.303Z,4.47
2018-03-22T09:54:15.176Z,4.51
2018-03-22T09:56:42.866Z,4.69
2018-03-22T09:59:10.552Z,4.81
2018-03-22T10:01:38.216Z,4.81
2018-03-22T10:04:06.132Z,4.53
2018-03-22T10:06:34.127Z,4.56
2018-03-22T10:09:01.806Z,4.93
2018-03-22T10:11:29.500Z,5.03
2018-03-22T10:13:57.171Z,5.14
2018-03-22T10:16:25.263Z,4.85
2018-03-22T10:18:53.327Z,4.94
2018-03-22T10:21:20.991Z,5.21
2018-03-22T10:23:48.682Z,5.22
2018-03-22T10:26:16.505Z,4.95
2018-03-22T10:28:44.386Z,5.29
2018-03-22T10:31:12.291Z,5.03
2018-03-22T10:33:39.958Z,4.86
2018-03-22T10:36:07.657Z,4.90
2018-03-22T10:38:35.352Z,5.37
2018-03-22T10:41:03.692Z,5.59
2018-03-22T10:43:31.375Z,5.66
2018-03-22T10:45:59.039Z,5.62
2018-03-22T10:48:27.027Z,5.43
2018-03-22T10:50:58.662Z,5.31
2018-03-22T10:53:26.447Z,5.69
2018-03-22T10:55:54.355Z,5.57
2018-03-22T10:58:22.032Z,5.58
2018-03-22T11:03:53.406Z,5.68
2018-03-22T11:06:21.093Z,5.47
2018-03-22T11:08:49.100Z,5.67
2018-03-22T11:11:16.707Z,5.88
2018-03-22T11:13:44.327Z,6.13
2018-03-22T11:16:12.137Z,6.25
2018-03-22T11:18:39.949Z,6.20
2018-03-22T11:21:07.818Z,6.07
2018-03-22T11:23:35.433Z,6.15
2018-03-22T11:26:03.022Z,6.15
2018-03-22T11:28:30.628Z,6.03
2018-03-22T11:30:58.215Z,6.03
2018-03-22T11:33:26.138Z,5.99
2018-03-22T11:35:53.724Z,5.87
2018-03-22T11:38:21.309Z,6.11
2018-03-22T11:40:48.938Z,5.86
2018-03-22T11:43:16.632Z,6.05
2018-03-22T11:45:44.247Z,6.06
2018-03-22T11:48:12.106Z,6.02
2018-03-22T11:50:40.091Z,5.98
2018-03-22T11:53:07.691Z,6.20
2018-03-22T11:55:35.278Z,6.27
2018-03-22T11:58:02.894Z,6.11
2018-03-22T12:00:30.774Z,5.87
2018-03-22T12:02:58.381Z,5.84
2018-03-22T12:05:25.984Z,5.86
2018-03-22T12:07:53.801Z,5.99
2018-03-22T12:10:21.465Z,6.17
2018-03-22T12:12:49.069Z,6.39
2018-03-22T12:15:16.766Z,6.55
2018-03-22T12:17:44.771Z,6.58
2018-03-22T12:20:12.742Z,6.37
2018-03-22T12:22:40.344Z,6.04
2018-03-22T12:25:07.989Z,6.17
2018-03-22T12:27:35.585Z,6.37
2018-03-22T12:30:04.065Z,6.32
2018-03-22T12:32:31.674Z,6.25
2018-03-22T12:34:59.271Z,6.28
2018-03-22T12:37:27.993Z,6.23
2018-03-22T12:39:55.694Z,6.43
2018-03-22T12:42:23.320Z,6.29
2018-03-22T12:44:50.937Z,6.45
2018-03-22T12:47:18.873Z,6.27
2018-03-22T12:49:46.849Z,6.55
2018-03-22T12:52:14.472Z,6.24
2018-03-22T12:54:42.773Z,6.36
2018-03-22T12:57:10.543Z,5.95
2018-03-22T12:59:38.264Z,6.02
2018-03-22T13:02:06.698Z,5.87
2018-03-22T13:04:34.433Z,6.03
2018-03-22T13:07:02.153Z,5.85
2018-03-22T13:09:29.876Z,6.01
2018-03-22T13:11:57.608Z,6.22
2018-03-22T13:14:25.218Z,6.01
2018-03-22T13:16:52.840Z,5.79
2018-03-22T13:19:20.700Z,5.76
2018-03-22T13:21:48.508Z,5.92
2018-03-22T13:24:16.288Z,5.71
2018-03-22T13:26:43.879Z,5.83
2018-03-22T13:29:12.087Z,5.66
2018-03-22T13:31:39.684Z,5.91
2018-03-22T13:34:07.676Z,5.72
2018-03-22T13:36:38.592Z,5.70
2018-03-22T13:39:06.340Z,5.73
2018-03-22T13:41:34.047Z,5.43
2018-03-22T13:44:01.720Z,5.35
2018-03-22T13:46:29.572Z,5.31
2018-03-22T13:48:57.256Z,5.02
2018-03-22T13:51:25.029Z,4.99
2018-03-22T13:53:53.012Z,4.81
2018-03-22T13:56:20.719Z,4.53
2018-03-22T13:58:48.420Z,4.59
2018-03-22T14:01:16.735Z,4.61
2018-03-22T14:03:46.285Z,4.73
2018-03-22T14:06:14.415Z,4.86
2018-03-22T14:08:42.132Z,4.83
2018-03-22T14:11:09.860Z,4.56
2018-03-22T14:13:37.527Z,4.59
2018-03-22T14:16:05.219Z,4.53
2018-03-22T14:18:32.892Z,4.34
2018-03-22T14:21:00.596Z,4.19
2018-03-22T14:23:28.278Z,4.07
2018-03-22T14:25:56.024Z,3.95
2018-03-22T14:28:23.704Z,3.80
2018-03-22T14:30:51.380Z,3.95
2018-03-22T14:33:19.160Z,4.12
2018-03-22T14:35:46.985Z,4.14
2018-03-22T14:38:14.699Z,4.53
2018-03-22T14:40:42.368Z,4.51
2018-03-22T14:43:10.154Z,4.06
2018-03-22T14:45:37.861Z,3.99
2018-03-22T14:48:05.580Z,4.00
2018-03-22T14:50:33.272Z,3.83
2018-03-22T14:53:01.143Z,4.08
2018-03-22T14:55:29.387Z,3.99
2018-03-22T14:57:57.133Z,3.84
2018-03-22T15:00:24.804Z,3.97
2018-03-22T15:02:52.500Z,3.83
2018-03-22T15:05:20.628Z,4.05
2018-03-22T15:07:48.322Z,3.88
2018-03-22T15:10:16.028Z,4.00
2018-03-22T15:12:43.711Z,4.27
2018-03-22T15:15:11.819Z,3.70
2018-03-22T15:17:39.508Z,3.85
2018-03-22T15:20:07.180Z,3.54
2018-03-22T15:22:34.874Z,3.43
2018-03-22T15:25:02.577Z,3.43
2018-03-22T15:27:30.553Z,3.53
2018-03-22T15:29:58.271Z,3.57
2018-03-22T15:32:26.163Z,3.49
2018-03-22T15:34:54.078Z,3.28
2018-03-22T15:37:22.015Z,3.19
2018-03-22T15:39:49.692Z,3.20
2018-03-22T15:42:17.600Z,3.39
2018-03-22T15:44:45.294Z,3.39
2018-03-22T15:47:13.048Z,3.20
2018-03-22T15:49:40.744Z,3.21
2018-03-22T15:52:08.492Z,3.15
2018-03-22T15:54:36.843Z,3.18
2018-03-22T15:57:04.536Z,3.15
2018-03-22T15:59:32.220Z,3.32
2018-03-22T16:02:00.063Z,3.27
2018-03-22T16:04:27.744Z,3.64
2018-03-22T16:06:55.447Z,3.61
2018-03-22T16:09:23.121Z,4.03
2018-03-22T16:11:51.017Z,4.14
2018-03-22T16:14:18.684Z,4.19
2018-03-22T16:16:46.358Z,4.10
2018-03-22T16:19:14.070Z,4.25
2018-03-22T16:21:41.735Z,4.22
2018-03-22T16:24:09.433Z,4.17
2018-03-22T16:26:37.198Z,4.28
2018-03-22T16:29:05.187Z,4.24
2018-03-22T16:31:32.863Z,4.33
2018-03-22T16:34:00.684Z,4.40
2018-03-22T16:36:28.384Z,4.31
2018-03-22T16:38:56.080Z,4.23
2018-03-22T16:41:23.836Z,4.21
2018-03-22T16:43:51.512Z,4.22
2018-03-22T16:46:19.459Z,4.18
2018-03-22T16:48:47.131Z,4.06
2018-03-22T16:51:14.798Z,4.20
2018-03-22T16:53:42.518Z,4.20
2018-03-22T16:56:10.199Z,4.29
2018-03-22T16:58:37.898Z,4.12
2018-03-22T17:01:05.701Z,4.35
2018-03-22T17:03:33.422Z,4.05
2018-03-22T17:06:01.097Z,4.03
2018-03-22T17:08:28.772Z,3.56
2018-03-22T17:10:56.483Z,3.42
2018-03-22T17:13:24.148Z,3.77
2018-03-22T17:15:51.852Z,3.99
2018-03-22T17:18:19.528Z,4.14
2018-03-22T17:20:47.256Z,4.02
2018-03-22T17:23:14.929Z,4.02
2018-03-22T17:25:42.609Z,4.15
2018-03-22T17:28:10.329Z,4.28
2018-03-22T17:30:38.171Z,4.16
2018-03-22T17:33:05.872Z,4.29
2018-03-22T17:35:33.551Z,4.23
2018-03-22T17:38:01.406Z,4.35
2018-03-22T17:40:29.105Z,4.38
2018-03-22T17:42:56.794Z,4.33
2018-03-22T17:45:24.547Z,4.30
2018-03-22T17:47:52.229Z,4.29
2018-03-22T17:50:19.932Z,4.20
2018-03-22T17:52:47.610Z,4.13
2018-03-22T17:55:15.334Z,4.17
2018-03-22T17:57:43.044Z,4.21
2018-03-22T18:00:10.735Z,4.10
2018-03-22T18:02:38.444Z,4.20
2018-03-22T18:05:06.120Z,4.35
2018-03-22T18:07:33.820Z,4.47
2018-03-22T18:10:01.495Z,4.36
2018-03-22T18:12:29.225Z,4.51
2018-03-22T18:14:56.908Z,4.52
2018-03-22T18:17:24.584Z,4.32
2018-03-22T18:19:52.301Z,4.35
2018-03-22T18:22:20.001Z,4.36
2018-03-22T18:24:47.696Z,4.42
2018-03-22T18:27:15.372Z,4.41
2018-03-22T18:29:43.284Z,4.51
2018-03-22T18:32:10.966Z,4.57
2018-03-22T18:34:38.686Z,4.55
2018-03-22T18:37:06.387Z,4.41
2018-03-22T18:39:34.063Z,4.59
2018-03-22T18:42:01.768Z,4.45
2018-03-22T18:44:29.448Z,4.46
2018-03-22T18:46:57.184Z,4.34
2018-03-22T18:49:24.876Z,4.33
2018-03-22T18:51:52.559Z,4.25
2018-03-22T18:54:20.244Z,4.23
2018-03-22T18:56:47.923Z,4.31
2018-03-22T18:59:15.622Z,4.37
2018-03-22T19:01:43.288Z,4.40
2018-03-22T19:04:11.377Z,4.41
2018-03-22T19:06:39.056Z,4.44
2018-03-22T19:09:06.810Z,4.24
2018-03-22T19:11:34.499Z,3.98
2018-03-22T19:14:02.180Z,4.29
2018-03-22T19:16:29.872Z,4.06
2018-03-22T19:18:57.560Z,4.29
2018-03-22T19:21:25.309Z,4.43
2018-03-22T19:23:52.989Z,4.49
2018-03-22T19:26:20.845Z,4.47
2018-03-22T19:28:48.510Z,4.54
2018-03-22T19:31:16.200Z,4.51
2018-03-22T19:33:43.892Z,4.57
2018-03-22T19:36:11.607Z,4.64
2018-03-22T19:38:39.572Z,4.58
2018-03-22T19:41:07.236Z,4.68
2018-03-22T19:43:34.931Z,4.68
2018-03-22T19:46:02.647Z,4.59
2018-03-22T19:48:30.315Z,4.37
2018-03-22T19:50:58.018Z,4.19
2018-03-22T19:53:25.685Z,4.30
2018-03-22T19:55:53.514Z,4.43
2018-03-22T19:58:21.188Z,4.44
2018-03-22T20:00:48.868Z,4.42
2018-03-22T20:03:16.565Z,4.03
2018-03-22T20:05:45.032Z,3.99
2018-03-22T20:08:12.824Z,3.84
2018-03-22T20:10:40.511Z,3.78
2018-03-22T20:13:08.231Z,3.48
2018-03-22T20:15:35.896Z,3.53
2018-03-22T20:18:03.563Z,3.64
2018-03-22T20:20:31.276Z,3.87
2018-03-22T20:22:58.945Z,4.13
2018-03-22T20:25:26.753Z,4.18
2018-03-22T20:27:54.840Z,4.10
2018-03-22T20:30:22.548Z,4.31
2018-03-22T20:32:50.320Z,4.25
2018-03-22T20:35:18.268Z,4.28
2018-03-22T20:37:45.964Z,4.31
2018-03-22T20:40:13.633Z,4.44
2018-03-22T20:42:41.322Z,4.52
2018-03-22T20:45:08.994Z,4.50
2018-03-22T20:47:36.708Z,4.44
2018-03-22T20:50:04.396Z,4.53
2018-03-22T20:52:32.087Z,4.50
2018-03-22T20:54:59.755Z,4.67
2018-03-22T20:57:27.452Z,4.62
2018-03-22T20:59:55.132Z,4.63
2018-03-22T21:02:22.832Z,4.69
2018-03-22T21:04:50.503Z,4.73
2018-03-22T21:07:18.216Z,4.37
2018-03-22T21:09:45.883Z,4.47
2018-03-22T21:12:13.557Z,4.45
2018-03-22T21:14:41.251Z,4.37
2018-03-22T21:17:08.938Z,4.50
2018-03-22T21:19:36.632Z,4.60
2018-03-22T21:22:04.316Z,4.54
2018-03-22T21:24:32.224Z,4.38
2018-03-22T21:26:59.886Z,4.22
2018-03-22T21:29:27.565Z,4.35
2018-03-22T21:31:55.259Z,4.40
2018-03-22T21:34:22.929Z,4.47
2018-03-22T21:36:50.624Z,4.45
2018-03-22T21:39:18.301Z,4.57
2018-03-22T21:41:57.789Z,4.60
2018-03-22T21:44:25.484Z,4.65
2018-03-22T21:46:53.168Z,4.49
2018-03-22T21:49:20.875Z,4.38
2018-03-22T21:54:57.055Z,3.85
2018-03-22T21:57:24.731Z,4.13
2018-03-22T21:59:52.437Z,4.35
2018-03-22T22:02:20.109Z,4.45
2018-03-22T22:04:48.172Z,3.78
2018-03-22T22:07:15.847Z,4.14
2018-03-22T22:09:43.516Z,3.52
2018-03-22T22:12:11.206Z,3.81
2018-03-22T22:14:38.875Z,4.04
2018-03-22T22:17:06.568Z,4.01
2018-03-22T22:19:34.244Z,4.34
2018-03-22T22:22:02.222Z,4.33
2018-03-22T22:24:29.993Z,4.30
2018-03-22T22:26:57.690Z,4.04
2018-03-22T22:29:25.420Z,4.38
2018-03-22T22:31:53.089Z,4.32
2018-03-22T22:34:20.851Z,4.27
2018-03-22T22:36:48.523Z,4.35
2018-03-22T22:39:16.572Z,4.37
2018-03-22T22:41:44.241Z,4.45
2018-03-22T22:44:11.929Z,4.48
2018-03-22T22:46:39.621Z,4.37
2018-03-22T22:49:07.288Z,4.38
2018-03-22T22:51:34.983Z,4.46
2018-03-22T22:54:02.774Z,4.59
2018-03-22T22:56:30.619Z,4.62
2018-03-22T22:58:58.288Z,4.56
2018-03-22T23:01:25.967Z,4.48
2018-03-22T23:03:53.660Z,4.43
2018-03-22T23:06:21.344Z,4.61
2018-03-22T23:08:49.057Z,4.62
2018-03-22T23:11:16.737Z,4.60
2018-03-22T23:13:44.472Z,4.60
2018-03-22T23:16:12.147Z,4.63
2018-03-22T23:18:39.735Z,4.60
2018-03-22T23:21:07.457Z,4.60
2018-03-22T23:23:35.140Z,4.70
2018-03-22T23:26:02.847Z,4.59
2018-03-22T23:28:30.527Z,4.60
2018-03-22T23:30:58.301Z,4.51
2018-03-22T23:33:25.978Z,4.68
2018-03-22T23:35:53.651Z,4.57
2018-03-22T23:38:21.348Z,4.21
2018-03-22T23:40:49.028Z,4.31
2018-03-22T23:43:16.723Z,4.41
2018-03-22T23:45:44.790Z,4.02
2018-03-22T23:48:12.755Z,4.26
2018-03-22T23:50:40.416Z,3.92
2018-03-22T23:53:08.085Z,4.12
2018-03-22T23:55:35.790Z,4.06
2018-03-22T23:58:03.476Z,4.03
